Time;durP1;ratioP1;P1;durP2;ratioP2;P2;SDS_P1;SDS_P2;PMS_P1;PMS_P2;Temp;Humidity;BMP_temperature;BMP_pressure;BME280_temperature;BME280_humidity;BME280_pressure;Samples;Min_cycle;Max_cycle;Signal;HPM_P1;HPM_P2
2022/11/03 00:01:45;;;;;;;4.70;4.35;;;;;;;8.72;100.00;101292.03;6068862;23;20094;-71
2022/11/03 00:04:17;;;;;;;10.77;4.47;;;;;;;8.42;100.00;101225.94;6066612;23;20018;-72
2022/11/03 00:06:46;;;;;;;4.72;4.20;;;;;;;8.85;100.00;101292.47;6037600;23;20015;-71
2022/11/03 00:09:14;;;;;;;4.55;4.28;;;;;;;8.85;100.00;101293.31;6062779;23;20018;-72
2022/11/03 00:11:43;;;;;;;4.30;4.00;;;;;;;8.57;100.00;101243.72;6069357;23;20041;-72
2022/11/03 00:14:10;;;;;;;11.02;4.32;;;;;;;8.73;100.00;101278.88;6065323;23;20026;-71
2022/11/03 00:16:38;;;;;;;4.00;3.80;;;;;;;8.75;100.00;101276.22;6064496;23;20046;-71
2022/11/03 00:19:05;;;;;;;5.22;4.43;;;;;;;8.71;100.00;101256.31;6062933;23;20019;-71
2022/11/03 00:21:32;;;;;;;4.40;4.00;;;;;;;8.88;100.00;101285.34;6047169;23;20037;-72
2022/11/03 00:24:01;;;;;;;11.50;3.90;;;;;;;8.73;100.00;101254.50;6058409;23;20026;-70
2022/11/03 00:26:29;;;;;;;9.75;4.30;;;;;;;8.73;100.00;101259.72;6062499;23;20084;-70
2022/11/03 00:29:01;;;;;;;5.22;3.92;;;;;;;8.93;100.00;101272.09;6062831;23;20034;-70
2022/11/03 00:31:33;;;;;;;3.70;3.60;;;;;;;8.94;100.00;101264.19;6066584;23;20072;-72
2022/11/03 00:34:00;;;;;;;4.27;4.07;;;;;;;8.92;100.00;101267.75;6059642;23;20299;-72
2022/11/03 00:36:29;;;;;;;4.55;4.25;;;;;;;8.23;100.00;101135.00;6060218;23;20345;-72
2022/11/03 00:38:56;;;;;;;6.55;4.55;;;;;;;8.91;100.00;101250.34;6064443;23;20030;-72
2022/11/03 00:41:25;;;;;;;4.18;3.97;;;;;;;8.94;100.00;101245.00;6062558;23;20022;-72
2022/11/03 00:43:52;;;;;;;4.22;3.95;;;;;;;8.57;100.00;101180.94;6068233;23;20121;-72
2022/11/03 00:46:21;;;;;;;4.40;4.10;;;;;;;8.97;100.00;101239.66;6066124;23;20353;-70
2022/11/03 00:48:47;;;;;;;6.28;4.18;;;;;;;8.95;100.00;101239.72;6039906;23;20489;-71
2022/11/03 00:51:19;;;;;;;5.53;4.32;;;;;;;9.00;100.00;101247.41;6062091;23;20071;-71
2022/11/03 00:53:56;;;;;;;4.03;3.83;;;;;;;9.07;100.00;101241.03;6061599;23;20426;-72
2022/11/03 00:56:25;;;;;;;5.03;4.28;;;;;;;8.91;100.00;101213.72;6033956;23;20019;-71
2022/11/03 00:58:52;;;;;;;4.63;4.32;;;;;;;8.93;100.00;101215.34;6059536;23;20097;-71
2022/11/03 01:01:21;;;;;;;4.35;4.05;;;;;;;8.82;100.00;101187.88;6058718;23;20014;-71
2022/11/03 01:06:50;;;;;;;4.68;4.25;;;;;;;9.06;100.00;101226.25;6052680;23;20029;-70
2022/11/03 01:09:21;;;;;;;4.13;3.92;;;;;;;8.59;100.00;101151.16;6060091;23;20034;-71
2022/11/03 01:11:59;;;;;;;4.20;4.00;;;;;;;8.26;100.00;101089.59;6060107;23;20037;-72
2022/11/03 01:14:46;;;;;;;4.40;4.10;;;;;;;9.01;100.00;101228.16;6078953;23;20229;-71
2022/11/03 01:17:24;;;;;;;9.02;4.50;;;;;;;8.46;100.00;101126.38;6047845;23;20080;-71
2022/11/03 01:19:51;;;;;;;10.18;4.85;;;;;;;9.02;100.00;101208.06;6041158;23;20429;-71
2022/11/03 01:22:19;;;;;;;4.10;3.90;;;;;;;8.83;100.00;101184.34;6059676;23;20397;-71
2022/11/03 01:24:46;;;;;;;4.72;4.43;;;;;;;8.72;100.00;101161.19;6059159;23;20034;-71
2022/11/03 01:27:16;;;;;;;4.10;3.90;;;;;;;8.92;100.00;101186.63;6058853;23;20023;-71
2022/11/03 01:29:43;;;;;;;3.80;3.60;;;;;;;8.65;100.00;101141.41;6043280;23;20229;-72
2022/11/03 01:32:10;;;;;;;4.78;4.38;;;;;;;8.25;100.00;101065.22;6058850;23;20034;-69
2022/11/03 01:34:37;;;;;;;7.03;4.05;;;;;;;8.73;100.00;101134.97;6060238;23;20098;-71
2022/11/03 01:37:03;;;;;;;4.47;4.28;;;;;;;8.92;100.00;101163.06;6033471;23;20034;-72
2022/11/03 01:39:30;;;;;;;8.55;4.07;;;;;;;8.48;100.00;101089.69;6059612;23;20026;-72
2022/11/03 01:41:57;;;;;;;4.10;3.80;;;;;;;8.54;100.00;101105.19;6063007;23;20026;-72
2022/11/03 01:44:35;;;;;;;3.90;3.70;;;;;;;8.85;100.00;101145.91;6084199;23;20014;-72
2022/11/03 01:47:20;;;;;;;4.18;3.95;;;;;;;8.87;100.00;101128.38;6054035;23;20117;-73
2022/11/03 01:49:57;;;;;;;11.18;4.70;;;;;;;7.88;100.00;100972.47;6052742;23;20049;-71
2022/11/03 01:52:32;;;;;;;4.85;4.40;;;;;;;8.77;100.00;101118.22;6063345;23;20027;-71
2022/11/03 01:55:26;;;;;;;5.55;4.10;;;;;;;8.64;100.00;101090.84;6042576;23;20270;-71
2022/11/03 01:58:01;;;;;;;6.30;4.00;;;;;;;8.69;100.00;101106.38;6055076;23;20038;-71
2022/11/03 02:00:27;;;;;;;5.00;4.70;;;;;;;8.58;100.00;101091.94;6061932;23;20468;-71
2022/11/03 02:02:54;;;;;;;4.03;3.72;;;;;;;8.88;100.00;101106.50;6056026;23;20102;-72
2022/11/03 02:05:24;;;;;;;4.00;3.80;;;;;;;8.84;100.00;101089.22;6040223;23;20092;-71
2022/11/03 02:07:59;;;;;;;4.10;3.80;;;;;;;8.90;100.00;101102.06;6067960;23;20191;-71
2022/11/03 02:10:25;;;;;;;4.47;4.13;;;;;;;8.81;100.00;101092.81;6063449;23;20022;-72
2022/11/03 02:12:52;;;;;;;4.68;4.20;;;;;;;7.91;100.00;100935.75;6065355;23;20033;-71
2022/11/03 02:15:20;;;;;;;4.55;4.15;;;;;;;8.90;100.00;101089.84;6059490;23;20045;-71
2022/11/03 02:17:50;;;;;;;4.03;3.83;;;;;;;8.61;100.00;101048.25;6058230;23;20080;-71
2022/11/03 02:20:21;;;;;;;5.75;5.38;;;;;;;8.84;100.00;101079.63;6051037;23;20046;-71
2022/11/03 02:22:56;;;;;;;3.80;3.60;;;;;;;8.85;100.00;101083.06;6064987;23;20026;-71
2022/11/03 02:25:32;;;;;;;4.72;4.40;;;;;;;8.85;100.00;101073.47;6049260;23;20468;-71
2022/11/03 02:27:59;;;;;;;5.75;4.20;;;;;;;8.47;100.00;101010.38;6065317;23;20026;-71
2022/11/03 02:30:33;;;;;;;4.63;4.20;;;;;;;8.73;100.00;101051.22;6057104;23;20533;-72
2022/11/03 02:33:10;;;;;;;4.93;4.53;;;;;;;8.83;100.00;101063.97;6062530;23;20500;-72
2022/11/03 02:35:47;;;;;;;7.28;4.13;;;;;;;8.48;100.00;100992.91;6065018;23;20096;-72
2022/11/03 02:38:18;;;;;;;4.43;4.22;;;;;;;8.81;100.00;101044.84;6064448;23;20033;-72
2022/11/03 02:40:49;;;;;;;4.88;4.57;;;;;;;8.83;100.00;101037.78;6028898;23;20026;-72
2022/11/03 02:43:17;;;;;;;4.43;4.13;;;;;;;8.58;100.00;100986.44;6062482;23;20457;-72
2022/11/03 02:45:47;;;;;;;4.05;3.85;;;;;;;8.86;100.00;101027.19;6056329;23;20026;-71
2022/11/03 02:48:16;;;;;;;4.00;3.80;;;;;;;8.87;100.00;101024.53;6034521;23;20253;-71
2022/11/03 02:50:43;;;;;;;4.88;4.47;;;;;;;8.63;100.00;100979.25;6046081;23;20026;-71
2022/11/03 02:53:11;;;;;;;4.53;4.18;;;;;;;8.91;100.00;101017.41;6054683;23;20014;-72
2022/11/03 02:56:05;;;;;;;4.70;4.30;;;;;;;8.89;100.00;101009.59;6061351;23;20598;-71
2022/11/03 02:59:03;;;;;;;4.00;3.80;;;;;;;8.93;100.00;101012.97;6065038;23;20083;-71
2022/11/03 03:01:48;;;;;;;3.90;3.70;;;;;;;8.84;100.00;100987.16;6063507;23;20394;-71
2022/11/03 03:04:25;;;;;;;6.55;4.18;;;;;;;9.00;100.00;101009.19;6062359;23;20079;-71
2022/11/03 03:07:03;;;;;;;4.72;4.35;;;;;;;8.61;100.00;100941.81;6073379;23;20030;-71
2022/11/03 03:09:45;;;;;;;4.10;3.90;;;;;;;8.99;100.00;101000.47;6063129;23;20022;-71
2022/11/03 03:12:16;;;;;;;4.55;4.25;;;;;;;8.86;100.00;100974.84;6053657;23;20472;-71
2022/11/03 03:14:44;;;;;;;4.75;4.07;;;;;;;8.98;100.00;100996.16;6050588;23;20480;-71
2022/11/03 03:17:36;;;;;;;4.50;4.10;;;;;;;8.58;100.00;100944.59;6044936;23;20083;-72
2022/11/03 03:20:06;;;;;;;6.07;4.20;;;;;;;8.93;100.00;100992.03;6056875;23;20167;-71
2022/11/03 03:22:46;;;;;;;5.30;3.88;;;;;;;8.76;100.00;100948.22;6057334;23;20030;-71
2022/11/03 03:25:22;;;;;;;4.68;4.28;;;;;;;8.94;100.00;100991.09;6066977;23;20021;-71
2022/11/03 03:27:55;;;;;;;4.40;4.00;;;;;;;7.97;100.00;100828.38;6052108;23;20033;-72
2022/11/03 03:30:22;;;;;;;3.95;3.75;;;;;;;8.64;100.00;100940.84;6058972;23;20006;-71
2022/11/03 03:32:51;;;;;;;8.77;4.57;;;;;;;8.72;100.00;100957.09;6060010;23;20042;-71
2022/11/03 03:35:24;;;;;;;4.10;3.90;;;;;;;8.89;100.00;100964.25;6047231;23;20014;-71
2022/11/03 03:37:56;;;;;;;4.00;3.80;;;;;;;8.88;100.00;100960.81;6056705;23;20446;-71
2022/11/03 03:40:35;;;;;;;4.47;3.95;;;;;;;8.73;100.00;100937.88;6033471;23;20080;-71
2022/11/03 03:43:05;;;;;;;4.00;3.80;;;;;;;8.92;100.00;100951.91;6062805;23;20261;-71
2022/11/03 03:45:33;;;;;;;4.43;4.15;;;;;;;8.91;100.00;100944.97;6061098;23;20078;-71
2022/11/03 03:48:01;;;;;;;4.20;3.90;;;;;;;8.83;100.00;100952.28;6049748;23;20011;-72
2022/11/03 03:50:31;;;;;;;4.57;4.28;;;;;;;8.39;100.00;100873.81;6057758;23;20080;-71
2022/11/03 03:53:03;;;;;;;5.00;4.13;;;;;;;8.90;100.00;100942.41;6032310;23;20014;-70
2022/11/03 03:55:36;;;;;;;4.13;3.90;;;;;;;8.90;100.00;100958.09;6062490;23;20087;-71
2022/11/03 03:58:06;;;;;;;4.45;4.05;;;;;;;8.59;100.00;100883.50;6061486;23;20596;-71
2022/11/03 04:00:33;;;;;;;4.38;4.18;;;;;;;8.93;100.00;100929.19;6038247;23;20048;-71
2022/11/03 04:03:00;;;;;;;4.40;4.10;;;;;;;8.98;100.00;100932.50;6062023;23;20053;-70
2022/11/03 04:05:26;;;;;;;5.45;4.15;;;;;;;7.96;100.00;100757.91;6063239;23;20018;-71
2022/11/03 04:07:52;;;;;;;10.68;4.38;;;;;;;8.94;100.00;100923.03;6061213;23;20088;-71
2022/11/03 04:10:21;;;;;;;4.63;4.32;;;;;;;8.69;100.00;100894.44;6061401;23;20631;-71
2022/11/03 04:23:59;;;;;;;4.30;4.07;;;;;;;8.90;100.00;100900.53;6049567;23;20034;-71
2022/11/03 04:26:27;;;;;;;4.88;4.57;;;;;;;8.54;100.00;100848.84;6062910;23;20129;-72
2022/11/03 04:28:54;;;;;;;7.47;4.50;;;;;;;8.47;100.00;100831.69;6057818;23;20071;-72
2022/11/03 04:31:21;;;;;;;7.75;5.18;;;;;;;8.70;100.00;100875.19;6063553;23;20045;-71
2022/11/03 04:33:48;;;;;;;4.22;3.95;;;;;;;8.28;100.00;100802.78;6057041;23;20034;-71
2022/11/03 04:36:20;;;;;;;5.60;4.35;;;;;;;8.89;100.00;100896.22;6067661;23;20044;-70
2022/11/03 04:38:47;;;;;;;4.43;4.13;;;;;;;8.45;100.00;100823.88;6055504;23;20080;-71
2022/11/03 04:41:21;;;;;;;4.25;3.90;;;;;;;8.89;100.00;100896.22;6025832;23;20031;-71
2022/11/03 04:43:49;;;;;;;4.75;4.30;;;;;;;8.87;100.00;100893.66;6058784;23;20014;-71
2022/11/03 04:46:24;;;;;;;5.20;4.70;;;;;;;8.84;100.00;100887.69;6027253;23;20676;-71
2022/11/03 04:48:53;;;;;;;4.57;4.20;;;;;;;8.45;100.00;100817.81;6047010;23;20043;-71
2022/11/03 04:51:23;;;;;;;4.35;4.15;;;;;;;8.70;100.00;100843.78;6042713;23;20162;-71
2022/11/03 04:53:53;;;;;;;4.30;4.10;;;;;;;8.93;100.00;100879.47;6064269;23;20072;-71
2022/11/03 04:56:23;;;;;;;8.00;5.18;;;;;;;8.93;100.00;100879.47;6023937;23;20011;-71
2022/11/03 04:58:50;;;;;;;4.88;4.47;;;;;;;8.85;100.00;100863.25;6053079;23;20084;-70
2022/11/03 05:01:20;;;;;;;16.42;4.70;;;;;;;8.61;100.00;100818.03;6066078;23;20074;-70
2022/11/03 05:03:52;;;;;;;4.68;4.38;;;;;;;8.95;100.00;100864.56;6063148;23;20515;-70
2022/11/03 05:06:25;;;;;;;4.60;4.30;;;;;;;9.11;100.00;100876.06;6051359;23;20103;-70
2022/11/03 05:08:57;;;;;;;4.43;4.13;;;;;;;8.78;100.00;100832.09;6063841;23;20099;-70
2022/11/03 05:11:35;;;;;;;4.97;4.45;;;;;;;9.05;100.00;100865.84;6050527;23;20022;-70
2022/11/03 05:14:06;;;;;;;4.28;4.07;;;;;;;9.13;100.00;100873.38;6026307;23;20073;-70
2022/11/03 05:16:33;;;;;;;8.93;4.25;;;;;;;8.89;100.00;100834.25;6049108;23;20020;-70
2022/11/03 05:19:00;;;;;;;4.28;4.00;;;;;;;9.17;100.00;100862.69;6062372;23;20176;-70
2022/11/03 05:21:27;;;;;;;5.32;5.00;;;;;;;8.61;100.00;100763.09;6065604;23;20442;-72
2022/11/03 05:24:00;;;;;;;4.20;4.00;;;;;;;9.19;100.00;100857.41;6032444;23;20527;-71
2022/11/03 05:26:31;;;;;;;;;;;;;;;9.23;100.00;100858.13;6062951;23;20047;-71
2022/11/03 05:29:08;;;;;;;6.93;3.90;;;;;;;8.85;100.00;100805.66;6049714;23;19918;-72
2022/11/03 05:31:36;;;;;;;11.90;4.20;;;;;;;9.28;100.00;100853.50;6056030;23;20069;-72
2022/11/03 05:34:12;;;;;;;5.57;4.85;;;;;;;9.12;100.00;100829.78;6047049;23;20030;-72
2022/11/03 05:36:38;;;;;;;4.78;3.90;;;;;;;9.25;100.00;100853.66;6047891;23;20085;-72
2022/11/03 05:39:27;;;;;;;4.78;4.35;;;;;;;9.25;100.00;100853.66;6058721;23;20473;-70
2022/11/03 05:41:55;;;;;;;4.70;4.30;;;;;;;8.82;100.00;100774.38;6052118;23;20482;-71
2022/11/03 05:44:35;;;;;;;4.22;3.95;;;;;;;9.29;100.00;100853.44;6051165;23;20030;-72
2022/11/03 05:47:11;;;;;;;4.95;4.07;;;;;;;9.04;100.00;100796.09;6032949;23;20045;-71
2022/11/03 05:49:38;;;;;;;4.10;3.90;;;;;;;9.35;100.00;100836.63;6051831;23;20026;-72
2022/11/03 05:52:21;;;;;;;4.68;4.28;;;;;;;9.36;100.00;100835.69;6024496;23;20023;-70
2022/11/03 05:54:48;;;;;;;4.88;4.40;;;;;;;9.32;100.00;100827.13;6048694;23;20580;-71
2022/11/03 05:57:17;;;;;;;4.43;4.13;;;;;;;9.04;100.00;100790.88;6071865;23;20026;-72
2022/11/03 05:59:49;;;;;;;7.85;4.10;;;;;;;8.90;100.00;100770.53;6057319;23;20030;-69
2022/11/03 06:02:34;;;;;;;4.40;4.13;;;;;;;9.31;100.00;100827.19;6057412;23;20755;-72
2022/11/03 06:05:02;;;;;;;19.23;4.07;;;;;;;9.27;100.00;100817.78;6058508;23;20009;-70
2022/11/03 06:07:30;;;;;;;4.25;3.95;;;;;;;9.23;100.00;100808.38;6028618;23;20031;-69
2022/11/03 06:09:57;;;;;;;7.85;4.45;;;;;;;8.26;100.00;100648.59;6054911;23;20042;-70
2022/11/03 06:12:24;;;;;;;4.30;4.03;;;;;;;9.18;100.00;100795.47;6056848;23;20087;-70
2022/11/03 06:14:51;;;;;;;6.88;4.47;;;;;;;9.25;100.00;100803.91;6053512;23;20462;-71
2022/11/03 06:17:24;;;;;;;4.30;4.00;;;;;;;9.32;100.00;100802.69;6055979;23;20038;-71
2022/11/03 06:19:56;;;;;;;4.35;4.15;;;;;;;9.37;100.00;100811.22;6051543;23;20068;-71
2022/11/03 06:22:28;;;;;;;5.45;4.97;;;;;;;9.18;100.00;100785.84;6063110;23;20035;-71
2022/11/03 06:25:09;;;;;;;4.57;4.25;;;;;;;8.91;100.00;100742.59;6036807;23;20568;-71
2022/11/03 06:27:36;;;;;;;7.38;4.00;;;;;;;9.00;100.00;100744.81;6063765;23;20018;-70
2022/11/03 06:30:32;;;;;;;6.10;4.32;;;;;;;9.33;100.00;100800.03;6057735;23;20014;-71
2022/11/03 06:33:05;;;;;;;4.05;3.85;;;;;;;8.39;100.00;100631.44;6046248;23;20009;-72
2022/11/03 06:35:33;;;;;;;4.78;4.35;;;;;;;9.38;100.00;100805.91;6063134;23;20030;-72
2022/11/03 06:38:00;;;;;;;5.57;4.47;;;;;;;9.38;100.00;100792.81;6062055;23;20088;-72
2022/11/03 06:40:32;;;;;;;4.72;4.43;;;;;;;9.45;100.00;100803.84;6061140;23;20572;-71
2022/11/03 06:43:07;;;;;;;4.28;4.07;;;;;;;9.38;100.00;100765.75;6047417;23;20072;-71
2022/11/03 06:45:33;;;;;;;4.30;4.10;;;;;;;9.41;100.00;100759.53;6046058;23;20030;-71
2022/11/03 06:48:11;;;;;;;5.07;4.68;;;;;;;9.51;100.00;100774.75;6058201;23;20064;-71
2022/11/03 06:50:38;;;;;;;4.65;4.05;;;;;;;9.56;100.00;100782.38;6061412;23;20105;-71
2022/11/03 06:53:10;;;;;;;4.63;4.32;;;;;;;9.54;100.00;100773.75;6064781;23;20030;-71
2022/11/03 06:55:38;;;;;;;4.05;3.83;;;;;;;9.55;100.00;100773.69;6071384;23;20018;-70
2022/11/03 06:58:31;;;;;;;6.85;4.60;;;;;;;9.56;100.00;100771.91;6053385;23;20018;-71
2022/11/03 07:01:01;;;;;;;4.97;4.57;;;;;;;9.25;100.00;100726.19;6052420;23;20026;-70
2022/11/03 07:03:32;;;;;;;4.57;4.38;;;;;;;9.12;100.00;100704.09;6050528;23;20018;-70
2022/11/03 07:06:16;;;;;;;4.60;4.28;;;;;;;9.24;100.00;100707.94;6050378;23;20018;-71
2022/11/03 07:08:47;;;;;;;9.52;4.80;;;;;;;9.54;100.00;100753.66;6062705;23;20178;-70
2022/11/03 07:11:21;;;;;;;4.80;4.50;;;;;;;9.58;100.00;100776.19;6051007;23;20384;-70
2022/11/03 07:13:52;;;;;;;8.98;5.22;;;;;;;9.30;100.00;100719.00;6032060;23;20039;-70
2022/11/03 07:16:22;;;;;;;4.40;4.00;;;;;;;9.57;100.00;100766.59;6031380;23;20027;-71
2022/11/03 07:18:48;;;;;;;4.30;4.03;;;;;;;9.78;100.00;100772.63;6059186;23;20023;-70
2022/11/03 07:21:35;;;;;;;4.00;3.80;;;;;;;9.92;100.00;100771.94;6043040;23;20027;-70
2022/11/03 07:24:12;;;;;;;5.80;4.10;;;;;;;9.86;100.00;100738.19;6058138;23;20030;-70
2022/11/03 07:26:38;;;;;;;5.68;4.13;;;;;;;10.20;100.00;100773.19;6055902;23;20030;-70
2022/11/03 07:29:09;;;;;;;4.63;4.22;;;;;;;10.06;100.00;100737.16;6016940;23;20094;-70
2022/11/03 07:31:36;;;;;;;5.40;4.97;;;;;;;9.98;100.00;100707.88;6081507;23;20484;-71
2022/11/03 07:34:04;;;;;;;6.22;4.80;;;;;;;9.48;100.00;100612.50;6041245;23;20089;-70
2022/11/03 07:36:31;;;;;;;6.45;4.93;;;;;;;10.60;100.00;100794.00;6060127;23;20038;-70
2022/11/03 07:39:00;;;;;;;16.20;4.38;;;;;;;10.70;100.00;100784.75;6050970;23;20053;-70
2022/11/03 07:41:30;;;;;;;6.95;5.13;;;;;;;10.84;100.00;100799.78;6043798;23;20084;-70
2022/11/03 07:44:00;;;;;;;4.85;4.55;;;;;;;10.11;100.00;100655.66;6042551;23;20031;-71
2022/11/03 07:46:27;;;;;;;4.50;4.30;;;;;;;11.09;100.00;100799.38;6056837;23;20019;-70
2022/11/03 07:48:58;;;;;;;4.53;4.22;;;;;;;11.20;100.00;100790.91;6034705;23;20023;-71
2022/11/03 07:51:31;;;;;;;4.55;4.35;;;;;;;11.26;100.00;100799.28;6060420;23;20430;-71
2022/11/03 07:54:09;;;;;;;6.57;4.63;;;;;;;10.97;100.00;100759.69;6049225;23;20011;-72
2022/11/03 07:56:48;;;;;;;4.93;4.60;;;;;;;11.13;100.00;100758.88;6061610;23;20339;-71
2022/11/03 07:59:20;;;;;;;5.20;4.82;;;;;;;11.39;100.00;100804.75;6055023;23;20025;-71
2022/11/03 08:01:50;;;;;;;7.78;4.38;;;;;;;11.15;100.00;100762.25;6034445;23;20030;-71
2022/11/03 08:04:30;;;;;;;4.75;4.45;;;;;;;11.22;100.00;100752.25;6035716;23;20042;-71
2022/11/03 08:06:56;;;;;;;5.45;4.90;;;;;;;11.48;100.00;100806.88;6065109;23;20465;-72
2022/11/03 08:09:23;;;;;;;5.00;4.68;;;;;;;11.49;100.00;100784.94;6064502;23;20035;-69
2022/11/03 08:11:50;;;;;;;5.65;5.15;;;;;;;10.59;100.00;100633.09;6069678;23;20037;-69
2022/11/03 08:14:16;;;;;;;5.72;5.30;;;;;;;11.58;100.00;100802.81;5997440;23;20011;-69
2022/11/03 08:16:43;;;;;;;4.55;4.35;;;;;;;11.61;100.00;100798.34;6045648;23;20022;-69
2022/11/03 08:19:09;;;;;;;11.63;4.85;;;;;;;11.66;100.00;100793.66;6044116;23;20125;-68
2022/11/03 08:21:36;;;;;;;5.07;4.70;;;;;;;11.66;100.00;100791.03;6043087;23;20096;-68
2022/11/03 08:24:04;;;;;;;8.27;5.05;;;;;;;11.63;100.00;100778.91;6060309;23;20041;-69
2022/11/03 08:26:30;;;;;;;5.43;4.95;;;;;;;11.73;100.00;100784.53;6061707;23;20006;-69
2022/11/03 08:28:56;;;;;;;5.20;4.85;;;;;;;11.81;100.00;100784.06;6053316;23;20084;-69
2022/11/03 08:31:23;;;;;;;5.20;4.60;;;;;;;11.85;100.00;100781.19;6066781;23;20017;-69
2022/11/03 08:33:49;;;;;;;5.28;4.97;;;;;;;11.87;100.00;100781.97;6055930;23;20016;-68
2022/11/03 08:36:16;;;;;;;5.60;4.97;;;;;;;11.50;100.00;100715.66;6069998;23;20083;-69
2022/11/03 08:38:42;;;;;;;12.27;5.10;;;;;;;11.93;100.00;100781.66;6050813;23;20023;-69
2022/11/03 08:41:09;;;;;;;5.35;4.93;;;;;;;11.82;100.00;100756.84;6062008;23;20032;-69
2022/11/03 08:43:35;;;;;;;8.07;5.22;;;;;;;11.96;100.00;100770.09;6024037;23;20003;-69
2022/11/03 08:46:02;;;;;;;6.82;5.30;;;;;;;11.75;100.00;100716.94;6068369;23;20083;-69
2022/11/03 08:48:38;;;;;;;8.80;5.28;;;;;;;12.07;100.00;100753.72;6034955;23;20089;-69
2022/11/03 08:51:06;;;;;;;7.15;4.63;;;;;;;11.91;100.00;100709.03;6065692;23;20179;-69
2022/11/03 08:53:33;;;;;;;8.93;4.80;;;;;;;12.19;100.00;100747.75;6037084;23;20453;-70
2022/11/03 08:55:59;;;;;;;5.10;4.80;;;;;;;12.17;100.00;100739.94;6026204;23;20053;-69
2022/11/03 08:58:26;;;;;;;4.95;4.60;;;;;;;12.25;100.00;100730.72;6027524;23;20231;-68
2022/11/03 09:00:52;;;;;;;5.20;4.88;;;;;;;12.32;100.00;100730.28;6010008;23;20488;-69
2022/11/03 09:03:18;;;;;;;7.38;4.85;;;;;;;12.45;100.00;100735.69;6017544;23;20081;-69
2022/11/03 09:05:45;;;;;;;5.15;4.78;;;;;;;12.54;100.00;100740.38;6028555;23;20053;-68
2022/11/03 09:08:12;;;;;;;6.00;5.25;;;;;;;12.60;100.00;100743.59;6029883;23;20088;-70
2022/11/03 09:10:58;;;;;;;5.95;4.80;;;;;;;12.34;100.00;100691.56;6025176;23;20030;-69
2022/11/03 09:13:25;;;;;;;5.05;4.75;;;;;;;12.70;100.00;100756.09;6025329;23;20368;-70
2022/11/03 09:15:51;;;;;;;5.25;4.95;;;;;;;12.82;99.49;100730.81;6028827;23;20031;-69
2022/11/03 09:18:18;;;;;;;6.00;5.50;;;;;;;12.96;98.93;100727.34;6002987;23;20027;-71
2022/11/03 09:20:44;;;;;;;5.78;5.38;;;;;;;12.73;97.74;100665.56;6023153;23;20026;-68
2022/11/03 09:23:11;;;;;;;6.95;4.97;;;;;;;13.01;96.82;100693.66;6025887;23;20059;-69
2022/11/03 09:25:37;;;;;;;5.15;4.55;;;;;;;13.09;95.90;100699.31;6022594;23;20047;-70
2022/11/03 09:28:04;;;;;;;5.90;5.45;;;;;;;12.97;95.77;100674.56;6005956;23;20228;-70
2022/11/03 09:30:31;;;;;;;5.63;5.30;;;;;;;13.18;94.93;100690.81;6026508;23;20204;-71
2022/11/03 09:32:57;;;;;;;5.10;4.80;;;;;;;13.25;95.72;100698.31;6030414;23;20461;-73
2022/11/03 09:35:23;;;;;;;6.15;4.95;;;;;;;12.73;95.45;100587.41;5996339;23;20049;-73
2022/11/03 09:37:50;;;;;;;4.68;4.47;;;;;;;13.09;95.41;100643.09;6025530;23;20027;-73
2022/11/03 09:40:17;;;;;;;9.02;5.10;;;;;;;13.46;95.11;100660.06;5994779;23;20020;-73
2022/11/03 09:42:44;;;;;;;4.28;4.07;;;;;;;13.46;93.93;100657.44;6033378;23;20038;-73
2022/11/03 09:45:10;;;;;;;5.43;4.93;;;;;;;13.21;93.35;100612.50;6005007;23;20019;-73
2022/11/03 09:47:40;;;;;;;5.32;4.93;;;;;;;13.16;93.30;100584.66;6033696;23;20050;-74
2022/11/03 09:50:14;;;;;;;5.40;5.10;;;;;;;13.50;94.21;100635.19;6027234;23;20073;-74
2022/11/03 09:52:40;;;;;;;4.75;4.38;;;;;;;13.44;92.92;100619.78;6040193;23;20038;-74
2022/11/03 09:55:26;;;;;;;13.93;5.30;;;;;;;13.04;91.68;100553.00;6055886;23;20555;-74
2022/11/03 09:58:12;;;;;;;4.60;4.30;;;;;;;13.60;90.45;100639.88;6057453;23;20026;-72
2022/11/03 10:00:38;;;;;;;5.07;4.78;;;;;;;13.61;91.07;100620.47;6037119;23;20163;-68
2022/11/03 10:03:05;;;;;;;10.98;5.88;;;;;;;12.47;90.58;100446.91;6063286;23;20024;-68
2022/11/03 10:05:35;;;;;;;5.45;5.05;;;;;;;13.44;89.94;100600.50;6062350;23;20026;-68
2022/11/03 10:08:10;;;;;;;4.88;4.57;;;;;;;13.41;90.48;100604.19;6058570;23;20044;-67
2022/11/03 10:10:38;;;;;;;6.35;5.22;;;;;;;13.45;90.28;100592.50;6048053;23;20077;-68
2022/11/03 10:13:07;;;;;;;5.38;4.88;;;;;;;13.02;89.38;100526.75;6045903;23;20026;-68
2022/11/03 10:15:34;;;;;;;5.38;5.03;;;;;;;13.61;88.91;100607.28;6055327;23;20038;-70
2022/11/03 10:18:01;;;;;;;4.80;4.45;;;;;;;13.65;87.90;100612.28;6061755;23;20013;-70
2022/11/03 10:20:28;;;;;;;6.20;5.30;;;;;;;13.71;88.64;100600.44;6063341;23;20022;-71
2022/11/03 10:22:54;;;;;;;5.43;4.88;;;;;;;13.44;86.40;100558.31;6059959;23;20167;-72
2022/11/03 10:25:28;;;;;;;5.55;5.15;;;;;;;13.69;85.48;100574.19;6051016;23;20023;-71
2022/11/03 10:28:21;;;;;;;5.20;4.80;;;;;;;13.80;84.74;100572.63;6059293;23;20035;-71
2022/11/03 10:30:55;;;;;;;5.53;5.13;;;;;;;13.80;84.65;100556.81;6029951;23;20118;-72
2022/11/03 10:33:49;;;;;;;5.32;4.82;;;;;;;13.95;83.34;100546.03;6061508;23;20022;-69
2022/11/03 10:36:15;;;;;;;5.30;4.90;;;;;;;13.92;83.30;100540.13;6060660;23;20024;-74
2022/11/03 10:38:43;;;;;;;5.45;4.95;;;;;;;13.68;83.11;100524.19;6054850;23;20102;-74
2022/11/03 10:41:09;;;;;;;9.02;5.22;;;;;;;13.92;84.80;100533.06;6063851;23;20030;-74
2022/11/03 10:43:36;;;;;;;5.35;5.05;;;;;;;13.74;85.87;100535.16;6053105;23;20107;-73
2022/11/03 10:46:30;;;;;;;5.30;4.93;;;;;;;13.71;85.65;100521.31;6032087;23;20018;-74
2022/11/03 10:49:18;;;;;;;4.68;4.47;;;;;;;13.65;86.63;100505.91;6047910;23;20341;-74
2022/11/03 10:51:51;;;;;;;5.25;4.70;;;;;;;13.55;84.99;100485.47;6065200;23;20026;-75
2022/11/03 10:54:19;;;;;;;;;;;;;;;13.55;86.03;100484.59;6040688;23;20511;-72
2022/11/03 10:56:47;;;;;;;5.35;4.93;;;;;;;13.46;86.58;100464.16;6052426;23;19920;-72
2022/11/03 10:59:19;;;;;;;6.03;4.82;;;;;;;13.23;86.74;100437.53;6059466;23;20039;-71
2022/11/03 11:01:46;;;;;;;5.38;4.40;;;;;;;13.10;86.45;100420.84;6061237;23;20010;-70
2022/11/03 11:04:17;;;;;;;5.10;4.70;;;;;;;12.83;86.51;100370.88;6036675;23;20090;-74
2022/11/03 11:06:45;;;;;;;10.00;4.47;;;;;;;13.42;85.62;100463.53;6066820;23;20033;-74
2022/11/03 11:09:14;;;;;;;5.20;4.90;;;;;;;13.51;85.99;100483.13;6056705;23;20423;-75
2022/11/03 11:12:05;;;;;;;5.13;4.82;;;;;;;13.39;85.71;100441.78;6040985;23;20645;-76
2022/11/03 11:14:33;;;;;;;5.18;4.70;;;;;;;13.72;85.17;100471.13;6052322;23;20026;-75
2022/11/03 11:17:00;;;;;;;9.60;5.43;;;;;;;13.70;84.65;100466.91;6039820;23;20035;-74
2022/11/03 11:19:28;;;;;;;5.05;4.75;;;;;;;13.78;84.13;100472.50;6056698;23;20023;-73
2022/11/03 11:21:55;;;;;;;4.93;4.57;;;;;;;13.87;83.26;100474.50;6054339;23;20454;-76
2022/11/03 11:24:43;;;;;;;10.65;5.20;;;;;;;13.89;83.40;100472.59;6057595;23;20296;-76
2022/11/03 11:27:31;;;;;;;7.28;4.65;;;;;;;13.87;82.40;100466.59;6061005;23;20182;-73
2022/11/03 11:29:59;;;;;;;5.50;4.53;;;;;;;13.88;82.86;100486.72;6062431;23;20030;-71
2022/11/03 11:32:37;;;;;;;4.90;4.60;;;;;;;13.84;82.41;100476.50;6024273;23;20015;-71
2022/11/03 11:35:27;;;;;;;5.60;4.95;;;;;;;13.96;82.26;100458.00;6064193;23;20010;-71
2022/11/03 11:37:53;;;;;;;4.57;4.38;;;;;;;13.74;81.82;100411.19;6039019;23;20093;-70
2022/11/03 11:40:22;;;;;;;5.43;5.03;;;;;;;13.98;81.33;100441.25;6051105;23;20018;-72
2022/11/03 11:43:18;;;;;;;4.63;4.38;;;;;;;13.60;82.31;100377.03;6054584;23;20115;-72
2022/11/03 11:46:22;;;;;;;5.22;4.93;;;;;;;13.84;81.93;100400.84;6039881;23;20041;-71
2022/11/03 11:49:01;;;;;;;4.78;4.47;;;;;;;13.62;82.81;100398.88;6062907;23;20391;-69
2022/11/03 11:51:33;;;;;;;4.75;4.50;;;;;;;13.17;84.03;100319.38;6062219;23;20476;-69
2022/11/03 11:54:03;;;;;;;5.20;4.80;;;;;;;13.67;84.16;100382.72;6062698;23;20010;-69
2022/11/03 11:56:45;;;;;;;5.07;4.72;;;;;;;13.44;84.31;100376.44;6038397;23;20023;-71
2022/11/03 11:59:18;;;;;;;5.25;4.95;;;;;;;13.38;84.83;100368.94;6058453;23;20327;-70